Anthony, West Virginia
Current Conditions -  °F | °C
As of 2:55 PM on Sunday 23 Nov 2014 (Local Time) from KLWB Reporting Station
Drizzle Drizzle  
Wind Chill: 52°   Ceiling: 9000
Heat Index: 52°   Visibility: 10mi
Dew Point: 39°   Wind: 3mph
Humidity: 61%   Direction: 120°ESE
Pressure: 29.99"   Gusts: NA
Location:  38.0307°N, 80.4756°W
Report Text: KLWB 231955Z AUTO 12003KT 10SM -DZ SCT041 OVC090 11/04 A2999 RMK AO2 T01100038
Loading
Personal Weather Stations






























Interactive Weather Map New forecast layout! Learn more

10-Day Weather Forecast

Advertisements
Track Severe Weather on mobile